Time;durP1;ratioP1;P1;durP2;ratioP2;P2;SDS_P1;SDS_P2;PMS_P1;PMS_P2;Temp;Humidity;BMP_temperature;BMP_pressure;BME280_temperature;BME280_humidity;BME280_pressure;Samples;Min_cycle;Max_cycle;Signal;HPM_P1;HPM_P2
2023/12/30 00:01:21;;;;;;;7.35;4.70;;;;;;;24.81;35.39;99452.19;4980702;28;20389;-49
2023/12/30 00:03:48;;;;;;;7.07;4.93;;;;;;;24.81;35.44;99457.72;4980895;28;20031;-48
2023/12/30 00:06:15;;;;;;;7.20;5.13;;;;;;;24.80;35.31;99442.41;4983190;28;20109;-47
2023/12/30 00:08:40;;;;;;;6.85;4.75;;;;;;;24.76;35.34;99433.63;4983308;28;20061;-47
2023/12/30 00:11:06;;;;;;;6.90;4.80;;;;;;;24.77;35.52;99424.84;4984223;28;20116;-47
2023/12/30 00:13:31;;;;;;;7.90;5.07;;;;;;;24.75;35.36;99429.38;4986638;28;20027;-49
2023/12/30 00:15:56;;;;;;;6.32;4.47;;;;;;;24.79;35.33;99429.84;4983319;28;20026;-48
2023/12/30 00:18:22;;;;;;;6.80;4.22;;;;;;;24.77;35.33;99437.91;4987639;28;20029;-48
2023/12/30 00:20:47;;;;;;;6.78;4.60;;;;;;;24.75;35.49;99437.66;4984429;28;20026;-48
2023/12/30 00:23:13;;;;;;;7.10;4.75;;;;;;;24.76;35.32;99430.88;4981744;28;20037;-49
2023/12/30 00:25:38;;;;;;;5.88;3.97;;;;;;;24.77;35.34;99435.91;4979665;28;20096;-46
2023/12/30 00:28:04;;;;;;;7.45;4.72;;;;;;;24.75;35.50;99432.88;4983749;28;20023;-46
2023/12/30 00:30:29;;;;;;;6.32;4.28;;;;;;;24.73;35.33;99427.84;4985290;28;20030;-47
2023/12/30 00:32:54;;;;;;;6.53;4.20;;;;;;;24.76;35.47;99433.63;4989113;28;20021;-49
2023/12/30 00:35:21;;;;;;;6.30;4.22;;;;;;;24.74;35.38;99442.41;4987185;28;20113;-46
2023/12/30 00:37:46;;;;;;;6.80;4.43;;;;;;;24.74;35.45;99445.16;4985620;28;20409;-47
2023/12/30 00:40:12;;;;;;;6.55;4.28;;;;;;;24.75;35.29;99435.63;4985186;28;20035;-47
2023/12/30 00:42:37;;;;;;;6.35;4.07;;;;;;;24.75;35.30;99437.66;4986176;28;20046;-48
2023/12/30 00:45:03;;;;;;;5.78;3.55;;;;;;;24.74;35.53;99436.88;4985428;28;20026;-48
2023/12/30 00:47:29;;;;;;;5.50;3.60;;;;;;;24.73;35.47;99438.13;4985679;28;20030;-48
2023/12/30 00:49:54;;;;;;;6.68;4.32;;;;;;;24.73;35.20;99436.13;4983649;28;20514;-48
2023/12/30 00:52:19;;;;;;;5.78;3.90;;;;;;;24.72;35.33;99434.63;4982711;28;20030;-49
2023/12/30 00:54:45;;;;;;;5.88;3.55;;;;;;;24.72;35.31;99439.38;4989200;28;20033;-48
2023/12/30 00:57:10;;;;;;;5.47;3.53;;;;;;;24.72;35.35;99434.63;4985185;28;20030;-53
2023/12/30 00:59:35;;;;;;;5.93;3.60;;;;;;;24.74;35.29;99439.66;4983892;28;20620;-50
2023/12/30 01:02:01;;;;;;;6.00;3.60;;;;;;;24.73;35.21;99440.91;4989690;28;20018;-47
2023/12/30 01:04:26;;;;;;;5.93;3.78;;;;;;;24.73;35.24;99438.13;4986921;28;20030;-48
2023/12/30 01:06:51;;;;;;;6.13;3.45;;;;;;;24.73;35.53;99440.91;4986747;28;20533;-49
2023/12/30 01:09:17;;;;;;;5.68;3.40;;;;;;;24.73;35.22;99443.66;4983946;28;20026;-48
2023/12/30 01:11:42;;;;;;;5.70;3.50;;;;;;;24.71;35.42;99437.88;4984353;28;20063;-48
2023/12/30 01:14:07;;;;;;;5.60;3.38;;;;;;;24.72;35.36;99451.19;4983509;28;20479;-48
2023/12/30 01:16:35;;;;;;;5.10;3.10;;;;;;;24.72;35.45;99456.72;4988782;28;20018;-46
2023/12/30 01:19:01;;;;;;;5.90;3.42;;;;;;;24.67;35.36;99451.16;4989829;28;20014;-48
2023/12/30 01:21:26;;;;;;;6.38;3.38;;;;;;;24.69;35.48;99446.66;4991218;28;20546;-47
2023/12/30 01:23:52;;;;;;;5.45;3.10;;;;;;;24.70;35.48;99455.69;4984286;28;20031;-48
2023/12/30 01:26:17;;;;;;;5.70;3.30;;;;;;;24.70;35.23;99461.22;4986987;28;20077;-48
2023/12/30 01:28:42;;;;;;;5.57;3.17;;;;;;;24.71;35.28;99465.47;4983787;28;20041;-47
2023/12/30 01:31:08;;;;;;;5.28;3.13;;;;;;;24.72;35.21;99478.03;4988010;28;20101;-46
2023/12/30 01:33:33;;;;;;;5.40;3.13;;;;;;;24.67;35.48;99481.50;4985733;28;20034;-48
2023/12/30 01:35:58;;;;;;;5.65;3.25;;;;;;;24.68;35.48;99474.75;4984113;28;20712;-46
2023/12/30 01:38:24;;;;;;;5.10;2.88;;;;;;;24.69;35.25;99468.72;4981274;28;20031;-48
2023/12/30 01:40:49;;;;;;;5.18;3.08;;;;;;;24.69;35.48;99484.53;4993371;28;20034;-51
2023/12/30 01:43:30;;;;;;;5.25;3.08;;;;;;;24.70;35.24;99483.28;4987131;28;20035;-47
2023/12/30 01:46:00;;;;;;;4.72;2.58;;;;;;;24.68;35.30;99478.25;4988361;28;20026;-46
2023/12/30 01:48:27;;;;;;;5.28;3.00;;;;;;;24.65;35.32;99489.53;4989358;28;20032;-47
2023/12/30 01:50:52;;;;;;;5.25;3.10;;;;;;;24.66;35.34;99502.09;4982657;28;20033;-49
2023/12/30 01:53:18;;;;;;;4.68;2.60;;;;;;;24.68;35.33;99502.34;5019338;28;20026;-48
2023/12/30 01:55:44;;;;;;;4.95;2.67;;;;;;;24.66;35.27;99496.56;4982124;28;20041;-48
2023/12/30 01:58:09;;;;;;;5.05;2.80;;;;;;;24.63;35.33;99503.06;4983881;28;20026;-48
2023/12/30 02:00:34;;;;;;;4.70;2.50;;;;;;;24.66;35.24;99508.34;4983373;28;20504;-49
2023/12/30 02:03:00;;;;;;;5.13;2.80;;;;;;;24.66;35.23;99504.84;5012587;28;20039;-46
2023/12/30 02:05:26;;;;;;;5.10;2.53;;;;;;;24.64;35.18;99508.09;4984726;28;20440;-46
2023/12/30 02:07:51;;;;;;;5.03;2.60;;;;;;;24.64;35.13;99516.38;4989980;28;20470;-47
2023/12/30 02:10:16;;;;;;;4.70;2.50;;;;;;;24.64;35.13;99515.63;5013649;28;20023;-47
2023/12/30 02:12:42;;;;;;;5.07;2.40;;;;;;;24.64;35.08;99518.38;4987294;28;20080;-47
2023/12/30 02:15:14;;;;;;;4.80;2.60;;;;;;;24.63;35.27;99514.09;4985427;28;20057;-48
2023/12/30 02:17:39;;;;;;;4.80;2.50;;;;;;;24.62;35.14;99534.66;4987632;28;20023;-47
2023/12/30 02:20:05;;;;;;;4.65;2.40;;;;;;;24.61;35.28;99527.63;4988349;28;20072;-48
2023/12/30 02:22:30;;;;;;;4.25;2.10;;;;;;;24.61;35.16;99522.88;4985261;28;20030;-47
2023/12/30 02:24:59;;;;;;;4.53;2.33;;;;;;;24.63;35.13;99525.91;4984537;28;20413;-48
2023/12/30 02:27:25;;;;;;;4.72;2.50;;;;;;;24.61;35.25;99536.66;4985963;28;20030;-48
2023/12/30 02:29:50;;;;;;;4.18;2.25;;;;;;;24.62;35.33;99540.19;4980673;28;20026;-48
2023/12/30 02:32:16;;;;;;;4.70;2.25;;;;;;;24.60;35.20;99542.69;4990746;28;20071;-49
2023/12/30 02:34:41;;;;;;;4.30;2.17;;;;;;;24.63;35.06;99538.94;4987324;28;20031;-48
2023/12/30 02:37:06;;;;;;;4.45;2.10;;;;;;;24.63;35.18;99541.69;4986779;28;20032;-48
2023/12/30 02:39:32;;;;;;;4.28;2.30;;;;;;;24.63;35.19;99541.69;4986437;28;20030;-48
2023/12/30 02:41:57;;;;;;;5.10;2.38;;;;;;;24.64;35.21;99537.69;4982814;28;20041;-49
2023/12/30 02:44:22;;;;;;;4.78;2.33;;;;;;;24.64;35.08;99543.22;4982523;28;20026;-48
2023/12/30 02:46:48;;;;;;;4.50;2.20;;;;;;;24.66;35.01;99540.72;4997862;28;20037;-49
2023/12/30 02:49:13;;;;;;;4.32;2.20;;;;;;;24.63;35.24;99547.22;4982462;28;20088;-51
2023/12/30 02:51:38;;;;;;;4.47;2.20;;;;;;;24.63;35.26;99522.38;4988768;28;20442;-48
2023/12/30 02:54:04;;;;;;;4.50;2.10;;;;;;;24.63;35.12;99536.94;4989111;28;20031;-49
2023/12/30 02:56:29;;;;;;;4.32;2.10;;;;;;;24.64;35.09;99540.44;4986064;28;20033;-51
2023/12/30 02:58:58;;;;;;;4.30;2.10;;;;;;;24.63;35.15;99539.69;4987090;28;20027;-49
2023/12/30 03:01:28;;;;;;;4.32;2.10;;;;;;;24.63;35.26;99549.97;4982083;28;20019;-51
2023/12/30 03:03:54;;;;;;;3.97;2.00;;;;;;;24.63;35.21;99547.97;4986700;28;20027;-49
2023/12/30 03:06:20;;;;;;;4.10;1.80;;;;;;;24.63;35.01;99547.22;4979064;28;20069;-49
2023/12/30 03:08:45;;;;;;;4.10;1.95;;;;;;;24.62;35.16;99542.94;5017075;28;20053;-49
2023/12/30 03:11:11;;;;;;;4.28;2.28;;;;;;;24.61;35.39;99539.44;4982679;28;20028;-49
2023/12/30 03:13:36;;;;;;;4.20;2.10;;;;;;;24.62;35.32;99542.94;4983050;28;20022;-48
2023/12/30 03:16:03;;;;;;;4.32;2.10;;;;;;;24.62;35.27;99540.19;4984097;28;20053;-48
2023/12/30 03:18:28;;;;;;;4.78;1.98;;;;;;;24.61;35.14;99544.19;4990066;28;20374;-47
2023/12/30 03:20:53;;;;;;;4.30;2.13;;;;;;;24.61;35.31;99539.44;4981203;28;20024;-47
2023/12/30 03:23:19;;;;;;;4.38;2.05;;;;;;;24.63;35.20;99536.94;4988091;28;20026;-47
2023/12/30 03:25:44;;;;;;;4.07;1.98;;;;;;;24.65;35.24;99539.22;4983590;28;20028;-47
2023/12/30 03:28:09;;;;;;;3.58;1.73;;;;;;;24.63;35.28;99531.41;4985452;28;20044;-48
2023/12/30 03:30:35;;;;;;;4.05;1.90;;;;;;;24.66;35.18;99532.44;4984593;28;20088;-48
2023/12/30 03:33:00;;;;;;;4.05;1.98;;;;;;;24.65;35.19;99525.41;4982396;28;20023;-48
2023/12/30 03:35:26;;;;;;;3.78;1.92;;;;;;;24.64;35.37;99521.13;5004379;28;20031;-46
2023/12/30 03:37:51;;;;;;;3.83;1.90;;;;;;;24.64;35.19;99521.13;4983675;28;20038;-49
2023/12/30 03:40:16;;;;;;;3.40;1.70;;;;;;;24.64;35.27;99537.69;4982782;28;20085;-49
2023/12/30 03:42:42;;;;;;;3.65;1.80;;;;;;;24.62;35.25;99529.16;4985873;28;20703;-47
2023/12/30 03:45:08;;;;;;;4.00;2.00;;;;;;;24.63;35.27;99525.13;4981185;28;20042;-49
2023/12/30 03:47:33;;;;;;;3.80;1.80;;;;;;;24.64;35.33;99523.91;4981265;28;20026;-49
2023/12/30 03:49:59;;;;;;;3.80;1.90;;;;;;;24.62;35.31;99523.63;4981867;28;20464;-49
2023/12/30 03:52:24;;;;;;;4.32;1.90;;;;;;;24.66;35.16;99526.91;4982640;28;20493;-47
2023/12/30 03:54:51;;;;;;;3.83;1.77;;;;;;;24.66;35.08;99524.16;4978679;28;20022;-48
2023/12/30 03:57:16;;;;;;;4.22;1.90;;;;;;;24.64;35.37;99515.63;4980581;28;20477;-51
2023/12/30 03:59:42;;;;;;;4.07;1.77;;;;;;;24.64;35.22;99512.84;4981188;28;20059;-48
2023/12/30 04:02:07;;;;;;;4.07;1.90;;;;;;;24.64;35.32;99516.38;4985648;28;20537;-48
2023/12/30 04:04:32;;;;;;;3.90;1.80;;;;;;;24.63;35.24;99519.63;4983344;28;20038;-46
2023/12/30 04:06:58;;;;;;;3.42;1.70;;;;;;;24.63;35.38;99516.88;4983558;28;20039;-48
2023/12/30 04:09:23;;;;;;;3.22;1.63;;;;;;;24.63;35.34;99525.13;4986160;28;20026;-47
2023/12/30 04:11:48;;;;;;;3.53;1.60;;;;;;;24.64;35.26;99512.84;4984765;28;20044;-46
2023/12/30 04:14:14;;;;;;;3.42;1.67;;;;;;;24.63;35.43;99523.13;4985748;28;20022;-51
2023/12/30 04:16:39;;;;;;;3.42;1.67;;;;;;;24.64;35.34;99521.91;4983992;28;20089;-49
2023/12/30 04:19:04;;;;;;;3.53;1.50;;;;;;;24.64;35.31;99521.13;4986990;28;20034;-48
2023/12/30 04:21:30;;;;;;;3.90;1.90;;;;;;;24.65;35.27;99517.88;4985412;28;20019;-48
2023/12/30 04:23:55;;;;;;;3.03;1.60;;;;;;;24.68;35.38;99524.44;4986503;28;20496;-49
2023/12/30 04:26:21;;;;;;;3.80;1.70;;;;;;;24.67;35.31;99525.66;4989021;28;20026;-47
2023/12/30 04:28:46;;;;;;;3.45;1.63;;;;;;;24.66;35.16;99529.69;4985915;28;20076;-49
2023/12/30 04:31:11;;;;;;;4.40;1.55;;;;;;;24.64;35.30;99537.69;4988848;28;20397;-47
2023/12/30 04:33:37;;;;;;;4.68;1.60;;;;;;;24.59;35.35;99536.41;4988007;28;20038;-47
2023/12/30 04:36:02;;;;;;;4.30;1.63;;;;;;;24.57;35.33;99532.66;4984520;28;20018;-48
2023/12/30 04:38:27;;;;;;;3.03;1.50;;;;;;;24.54;35.36;99533.63;4986944;28;20031;-47
2023/12/30 04:40:53;;;;;;;3.60;1.60;;;;;;;24.53;35.23;99543.91;4984470;28;20022;-49
2023/12/30 04:43:18;;;;;;;4.43;1.75;;;;;;;24.53;35.41;99540.41;4985603;28;20913;-49
2023/12/30 04:45:44;;;;;;;3.58;1.52;;;;;;;24.53;35.43;99540.41;4982343;28;20471;-47
2023/12/30 04:48:09;;;;;;;3.30;1.60;;;;;;;24.54;35.18;99544.69;4989400;28;20135;-49
2023/12/30 04:50:35;;;;;;;3.30;1.52;;;;;;;24.52;35.44;99541.66;4984503;28;20024;-50
2023/12/30 04:53:00;;;;;;;4.38;1.70;;;;;;;24.51;35.53;99540.13;4982967;28;20026;-50
2023/12/30 04:55:25;;;;;;;5.40;1.60;;;;;;;24.54;35.39;99544.69;4985263;28;20018;-49
2023/12/30 04:57:51;;;;;;;4.22;1.60;;;;;;;24.54;35.44;99539.16;4986417;28;20041;-50
2023/12/30 05:00:17;;;;;;;3.72;1.80;;;;;;;24.55;35.47;99538.66;4982294;28;20035;-47
2023/12/30 05:02:42;;;;;;;3.83;1.50;;;;;;;24.55;35.49;99535.91;4985342;28;20105;-46
2023/12/30 05:05:08;;;;;;;2.95;1.48;;;;;;;24.56;35.42;99542.19;4985654;28;20625;-48
2023/12/30 05:07:33;;;;;;;6.28;1.92;;;;;;;24.56;35.48;99547.69;4985604;28;20075;-46
2023/12/30 05:09:58;;;;;;;3.65;1.60;;;;;;;24.58;35.58;99547.97;5011709;28;20037;-47
2023/12/30 05:12:24;;;;;;;3.15;1.50;;;;;;;24.56;35.63;99542.94;4986941;28;20022;-47
2023/12/30 05:14:49;;;;;;;3.75;1.50;;;;;;;24.58;35.49;99553.47;4986191;28;20033;-49
2023/12/30 05:17:14;;;;;;;4.63;1.65;;;;;;;24.58;35.59;99548.69;4984911;28;20407;-49
2023/12/30 05:19:40;;;;;;;4.30;1.58;;;;;;;24.58;35.49;99545.94;4986617;28;20023;-49
2023/12/30 05:22:05;;;;;;;4.80;1.50;;;;;;;24.59;35.59;99546.69;4983688;28;20026;-49
2023/12/30 05:24:31;;;;;;;3.22;1.40;;;;;;;24.59;35.61;99544.69;4989258;28;20014;-48
2023/12/30 05:26:56;;;;;;;3.78;1.58;;;;;;;24.59;35.67;99546.69;4982583;28;20034;-48
2023/12/30 05:29:22;;;;;;;4.13;1.70;;;;;;;24.58;35.72;99550.72;4984076;28;20080;-48
2023/12/30 05:31:48;;;;;;;3.88;1.50;;;;;;;24.61;35.65;99549.72;4990839;28;20034;-46
2023/12/30 05:34:13;;;;;;;6.93;1.50;;;;;;;24.61;35.65;99556.00;4989761;28;20018;-47
2023/12/30 05:36:38;;;;;;;4.13;1.50;;;;;;;24.65;35.56;99544.72;4980057;28;20026;-47
2023/12/30 05:39:04;;;;;;;3.55;1.50;;;;;;;24.64;35.45;99545.97;4986981;28;20511;-48
2023/12/30 05:41:29;;;;;;;2.75;1.20;;;;;;;24.67;35.61;99547.75;4985203;28;20029;-46
2023/12/30 05:43:54;;;;;;;2.58;1.30;;;;;;;24.65;35.62;99542.72;4989734;28;20026;-49
2023/12/30 05:46:20;;;;;;;6.75;1.58;;;;;;;24.59;35.88;99552.97;4985769;28;20073;-49
2023/12/30 05:48:45;;;;;;;3.47;1.48;;;;;;;24.67;36.21;99553.28;4986551;28;20477;-44
2023/12/30 05:51:11;;;;;;;4.75;1.38;;;;;;;24.69;35.91;99540.50;4983515;28;20092;-46
2023/12/30 05:53:36;;;;;;;3.10;1.30;;;;;;;24.69;36.13;99550.78;4982867;28;20026;-42
2023/12/30 05:56:02;;;;;;;3.88;1.30;;;;;;;24.67;36.47;99545.00;4980967;28;20022;-44
2023/12/30 05:58:28;;;;;;;3.38;1.30;;;;;;;24.69;36.26;99550.78;4987401;28;20589;-46
2023/12/30 06:00:54;;;;;;;6.15;1.60;;;;;;;24.71;36.04;99540.75;4982759;28;20033;-52
2023/12/30 06:03:19;;;;;;;5.63;1.50;;;;;;;24.76;36.25;99539.28;4983473;28;20398;-45
2023/12/30 06:05:45;;;;;;;4.13;1.60;;;;;;;24.73;36.31;99529.97;4986991;28;20386;-48
2023/12/30 06:08:10;;;;;;;4.38;1.42;;;;;;;24.79;36.43;99541.03;4984040;28;20031;-45
2023/12/30 06:10:36;;;;;;;7.03;1.60;;;;;;;24.83;36.18;99543.56;4988861;28;20030;-54
2023/12/30 06:13:01;;;;;;;5.43;1.40;;;;;;;24.83;36.47;99549.84;4979296;28;20031;-50
2023/12/30 06:15:26;;;;;;;4.57;1.52;;;;;;;24.77;36.03;99551.06;5013129;28;20440;-56
2023/12/30 06:17:52;;;;;;;5.38;1.90;;;;;;;24.71;36.36;99551.78;4980349;28;20023;-44
2023/12/30 06:20:17;;;;;;;4.18;1.98;;;;;;;24.67;36.32;99561.56;4983229;28;20038;-50
2023/12/30 06:22:43;;;;;;;5.32;1.92;;;;;;;24.71;36.26;99556.56;4982517;28;20478;-52
2023/12/30 06:25:08;;;;;;;10.38;1.70;;;;;;;24.76;36.34;99549.56;4980591;28;20056;-57
2023/12/30 06:27:34;;;;;;;4.70;1.80;;;;;;;24.77;36.12;99556.59;4982744;28;20022;-48
2023/12/30 06:30:00;;;;;;;5.03;2.00;;;;;;;24.76;35.97;99564.13;4982016;28;20036;-50
2023/12/30 06:32:25;;;;;;;3.45;1.73;;;;;;;24.70;35.86;99568.84;4985964;28;20034;-55
2023/12/30 06:34:50;;;;;;;4.93;1.83;;;;;;;24.72;36.03;99577.38;4984226;28;20117;-47
2023/12/30 06:37:16;;;;;;;3.38;1.65;;;;;;;24.67;36.02;99570.59;4980165;28;20023;-48
2023/12/30 06:39:41;;;;;;;6.97;2.00;;;;;;;24.64;36.22;99568.06;4981690;28;20025;-43
2023/12/30 06:42:07;;;;;;;6.95;2.38;;;;;;;24.57;36.29;99557.50;4978774;28;20429;-49
2023/12/30 06:44:32;;;;;;;7.75;2.60;;;;;;;24.57;36.26;99566.53;4981039;28;20034;-51
2023/12/30 06:46:58;;;;;;;7.40;2.17;;;;;;;24.61;36.21;99567.03;4982748;28;20037;-57
2023/12/30 06:49:24;;;;;;;6.10;2.10;;;;;;;24.62;35.93;99567.78;4982379;28;20037;-59
2023/12/30 06:51:49;;;;;;;5.10;2.28;;;;;;;24.63;35.66;99574.81;4982652;28;20030;-60
2023/12/30 06:54:14;;;;;;;4.93;1.67;;;;;;;24.63;35.59;99572.06;4983669;28;20157;-60
2023/12/30 06:56:40;;;;;;;7.85;2.30;;;;;;;24.62;35.66;99578.81;4984145;28;20030;-59
2023/12/30 06:59:05;;;;;;;6.93;2.13;;;;;;;24.63;35.54;99580.34;4979889;28;20069;-59
2023/12/30 07:01:31;;;;;;;5.55;1.95;;;;;;;24.61;35.67;99591.88;4982608;28;20704;-58
2023/12/30 07:03:57;;;;;;;6.10;2.65;;;;;;;24.63;35.52;99596.91;4982506;28;20084;-59
2023/12/30 07:06:22;;;;;;;4.75;2.00;;;;;;;24.61;35.40;99604.91;4977136;28;20140;-59
2023/12/30 07:08:48;;;;;;;4.70;2.15;;;;;;;24.59;35.51;99605.41;4982329;28;20022;-56
2023/12/30 07:11:13;;;;;;;5.25;2.22;;;;;;;24.61;35.54;99610.44;4987558;28;20029;-58
2023/12/30 07:13:38;;;;;;;5.38;2.50;;;;;;;24.61;35.54;99610.44;4984669;28;20010;-59
2023/12/30 07:16:04;;;;;;;5.35;2.67;;;;;;;24.64;35.39;99617.72;4980259;28;20044;-57
2023/12/30 07:18:29;;;;;;;4.65;2.25;;;;;;;24.66;35.43;99618.00;4983210;28;20085;-60
2023/12/30 07:20:55;;;;;;;4.65;2.20;;;;;;;24.65;35.47;99619.25;4980217;28;20392;-59
2023/12/30 07:23:20;;;;;;;4.40;2.10;;;;;;;24.67;35.35;99619.50;4983281;28;20032;-57
2023/12/30 07:25:47;;;;;;;6.75;2.30;;;;;;;24.69;35.37;99617.00;4981084;28;20071;-59
2023/12/30 07:28:13;;;;;;;4.93;2.17;;;;;;;24.69;35.56;99614.25;4978365;28;20502;-60
2023/12/30 07:30:38;;;;;;;4.57;2.10;;;;;;;24.66;35.43;99623.50;4985038;28;20030;-58
2023/12/30 07:33:04;;;;;;;4.93;2.33;;;;;;;24.69;35.64;99617.00;4985012;28;20026;-58
2023/12/30 07:35:29;;;;;;;4.88;2.20;;;;;;;24.68;35.63;99623.78;4982886;28;20034;-59
2023/12/30 07:37:54;;;;;;;4.47;2.00;;;;;;;24.64;35.53;99632.28;4981043;28;20051;-58
2023/12/30 07:40:20;;;;;;;4.78;2.17;;;;;;;24.67;35.64;99633.31;4985263;28;20034;-57
2023/12/30 07:42:45;;;;;;;4.45;2.40;;;;;;;24.67;35.65;99636.81;4983652;28;20026;-60
2023/12/30 07:45:10;;;;;;;5.32;2.17;;;;;;;24.68;35.90;99640.34;4983334;28;20068;-60
2023/12/30 07:47:36;;;;;;;4.90;2.25;;;;;;;24.70;35.53;99640.59;4981446;28;20053;-58
2023/12/30 07:50:02;;;;;;;5.05;2.10;;;;;;;24.69;35.62;99641.84;4980685;28;20023;-58
2023/12/30 07:52:27;;;;;;;4.10;2.03;;;;;;;24.70;35.70;99637.84;4982451;28;20057;-57
2023/12/30 07:54:52;;;;;;;4.88;2.20;;;;;;;24.72;35.66;99632.59;4985422;28;20109;-57
2023/12/30 07:57:18;;;;;;;5.45;2.05;;;;;;;24.72;35.53;99627.06;4981655;28;20019;-57
2023/12/30 07:59:44;;;;;;;4.63;2.13;;;;;;;24.71;35.71;99640.13;4982043;28;20546;-60
2023/12/30 08:02:09;;;;;;;4.53;2.08;;;;;;;24.74;35.54;99641.13;4980084;28;20041;-58
2023/12/30 08:04:35;;;;;;;4.05;1.88;;;;;;;24.76;35.66;99638.66;4982353;28;20027;-58
2023/12/30 08:07:00;;;;;;;4.43;2.00;;;;;;;24.73;35.67;99640.38;4980736;28;20030;-60
2023/12/30 08:09:25;;;;;;;4.38;1.90;;;;;;;24.75;35.66;99642.66;4986273;28;20097;-58
2023/12/30 08:11:51;;;;;;;3.90;1.92;;;;;;;24.74;35.54;99643.91;4978696;28;20489;-58
2023/12/30 08:14:17;;;;;;;4.28;1.95;;;;;;;24.75;35.45;99650.19;5008995;28;20026;-58
2023/12/30 08:16:42;;;;;;;3.72;1.80;;;;;;;24.79;35.34;99651.44;4981730;28;20157;-58
2023/12/30 08:19:08;;;;;;;3.80;1.80;;;;;;;24.72;35.54;99660.19;4983141;28;20038;-58
2023/12/30 08:21:33;;;;;;;4.82;1.80;;;;;;;24.74;35.39;99654.94;4979258;28;20038;-58
2023/12/30 08:24:00;;;;;;;4.07;1.77;;;;;;;24.76;35.80;99660.72;4985605;28;20474;-54
2023/12/30 08:26:26;;;;;;;9.75;2.33;;;;;;;24.70;36.00;99663.44;4980506;28;20022;-51
2023/12/30 08:28:51;;;;;;;12.98;2.58;;;;;;;24.74;35.99;99663.22;4982720;28;20475;-53
2023/12/30 08:31:18;;;;;;;7.13;1.83;;;;;;;24.70;36.06;99657.16;4984129;28;20026;-52
2023/12/30 08:33:44;;;;;;;6.03;2.10;;;;;;;24.68;35.79;99660.41;4981727;28;20109;-52
2023/12/30 08:36:09;;;;;;;5.13;1.95;;;;;;;24.66;35.67;99662.91;4991620;28;20030;-50
2023/12/30 08:38:34;;;;;;;9.80;2.40;;;;;;;24.71;35.87;99653.16;4978544;28;20030;-51
2023/12/30 08:41:01;;;;;;;8.65;1.80;;;;;;;24.74;35.59;99657.69;4982287;28;20027;-52
2023/12/30 08:43:26;;;;;;;7.50;2.30;;;;;;;24.75;35.58;99658.47;4981315;28;20030;-50
2023/12/30 08:45:52;;;;;;;7.30;2.10;;;;;;;24.76;35.58;99668.25;4985295;28;20150;-52
2023/12/30 08:48:17;;;;;;;4.35;1.90;;;;;;;24.74;35.67;99668.75;4983225;28;20034;-49
2023/12/30 08:50:44;;;;;;;13.60;1.95;;;;;;;24.76;35.57;99655.22;4990850;28;20026;-49
2023/12/30 08:53:10;;;;;;;5.72;2.00;;;;;;;24.79;35.51;99656.97;4994719;28;20081;-50
2023/12/30 08:55:35;;;;;;;5.32;1.80;;;;;;;24.80;35.29;99655.72;4984975;28;20530;-52
2023/12/30 08:58:00;;;;;;;5.25;1.88;;;;;;;24.81;35.29;99654.47;4981055;28;20069;-50
2023/12/30 09:00:26;;;;;;;3.72;1.60;;;;;;;24.83;35.37;99663.03;4984131;28;20402;-50
2023/12/30 09:02:55;;;;;;;4.28;1.88;;;;;;;24.85;35.42;99663.28;4983171;28;20081;-50
2023/12/30 09:05:20;;;;;;;3.92;1.85;;;;;;;24.83;35.61;99662.25;4988576;28;20508;-50
2023/12/30 09:07:48;;;;;;;4.35;2.08;;;;;;;24.82;35.71;99655.97;4982019;28;20122;-54
2023/12/30 09:10:14;;;;;;;4.20;1.90;;;;;;;24.83;35.57;99657.50;4993396;28;20036;-52
2023/12/30 09:12:39;;;;;;;3.85;1.80;;;;;;;24.76;35.91;99652.44;4986886;28;20034;-51
2023/12/30 09:15:05;;;;;;;29.02;2.78;;;;;;;24.81;37.43;99657.22;4983150;28;20514;-47
2023/12/30 09:17:30;;;;;;;14.10;2.30;;;;;;;24.80;37.02;99655.72;4985302;28;20106;-45
2023/12/30 09:19:56;;;;;;;18.45;2.58;;;;;;;24.76;37.25;99651.69;4982549;28;20485;-46
2023/12/30 09:22:21;;;;;;;10.43;2.33;;;;;;;24.84;36.88;99649.97;4983916;28;20045;-45
2023/12/30 09:24:47;;;;;;;6.10;1.95;;;;;;;24.85;37.23;99652.25;4979293;28;20541;-45
2023/12/30 09:27:12;;;;;;;12.18;2.47;;;;;;;24.88;37.27;99654.03;4979980;28;20034;-48
2023/12/30 09:29:37;;;;;;;6.40;2.22;;;;;;;24.92;37.13;99653.81;4982539;28;20031;-47
2023/12/30 09:32:03;;;;;;;12.27;2.42;;;;;;;24.93;37.15;99656.06;4983008;28;20026;-45
2023/12/30 09:34:29;;;;;;;10.13;2.20;;;;;;;24.95;36.78;99648.09;4983603;28;20233;-45
2023/12/30 09:36:54;;;;;;;7.15;2.15;;;;;;;24.96;36.99;99646.06;4990484;28;20542;-46
2023/12/30 09:39:19;;;;;;;6.82;2.10;;;;;;;25.00;36.96;99649.34;4982383;28;20034;-45
2023/12/30 09:41:45;;;;;;;11.98;2.30;;;;;;;25.02;36.90;99653.13;4984147;28;20030;-42
2023/12/30 09:44:10;;;;;;;5.57;1.88;;;;;;;24.97;37.00;99659.41;4983403;28;20571;-46
2023/12/30 09:46:36;;;;;;;5.80;2.30;;;;;;;24.97;37.31;99666.91;4982595;28;20030;-42
2023/12/30 09:49:02;;;;;;;4.97;1.90;;;;;;;24.97;37.23;99658.63;4980754;28;20482;-43
2023/12/30 09:51:28;;;;;;;6.30;2.20;;;;;;;24.98;37.23;99660.16;4982804;28;20479;-44
2023/12/30 09:53:53;;;;;;;5.75;2.05;;;;;;;24.97;37.15;99656.63;4968018;28;20041;-40
2023/12/30 09:56:18;;;;;;;6.50;2.00;;;;;;;25.02;37.21;99660.66;5010391;28;20030;-48
2023/12/30 09:58:44;;;;;;;7.82;2.05;;;;;;;25.03;37.24;99651.88;4983013;28;20103;-51
2023/12/30 10:01:09;;;;;;;5.10;2.03;;;;;;;25.08;37.12;99655.16;4982351;28;20088;-50
2023/12/30 10:03:34;;;;;;;5.35;1.85;;;;;;;25.10;37.20;99656.19;4981456;28;20035;-47
2023/12/30 10:06:01;;;;;;;3.65;1.75;;;;;;;25.05;36.94;99646.63;4995068;28;20030;-54
2023/12/30 10:08:27;;;;;;;6.55;1.80;;;;;;;25.04;36.82;99647.88;4981032;28;20030;-50
2023/12/30 10:10:54;;;;;;;4.90;1.90;;;;;;;25.03;37.12;99645.59;4981955;28;20057;-46
2023/12/30 10:13:22;;;;;;;4.45;1.85;;;;;;;25.04;36.96;99649.88;4981705;28;20030;-48
2023/12/30 10:15:47;;;;;;;4.25;1.90;;;;;;;24.98;36.91;99644.31;4983077;28;20109;-44
2023/12/30 10:18:15;;;;;;;3.88;1.70;;;;;;;25.00;37.01;99639.06;4981934;28;20498;-47
2023/12/30 10:20:41;;;;;;;5.82;2.05;;;;;;;24.93;36.01;99638.75;4983947;28;20049;-51
2023/12/30 10:23:07;;;;;;;4.90;2.10;;;;;;;24.12;35.92;99631.59;4983521;28;20062;-44
2023/12/30 10:25:32;;;;;;;5.15;2.17;;;;;;;23.84;36.75;99633.31;4982402;28;20031;-47
2023/12/30 10:27:58;;;;;;;5.65;2.30;;;;;;;23.69;36.18;99627.91;4981089;28;20880;-47
2023/12/30 10:30:23;;;;;;;5.75;2.38;;;;;;;23.76;36.78;99629.50;4982731;28;20033;-56
2023/12/30 10:32:49;;;;;;;5.05;2.40;;;;;;;23.50;36.41;99615.66;5012624;28;20034;-54
2023/12/30 10:35:14;;;;;;;6.78;2.47;;;;;;;23.38;37.04;99627.81;4980744;28;20394;-46
2023/12/30 10:37:42;;;;;;;5.28;2.30;;;;;;;23.12;37.60;99619.47;4982519;28;20054;-53
2023/12/30 10:40:09;;;;;;;5.20;2.33;;;;;;;23.14;37.00;99612.25;4983867;28;20101;-49
2023/12/30 10:42:35;;;;;;;4.90;2.40;;;;;;;23.12;37.29;99617.47;4982478;28;20027;-47
2023/12/30 10:45:00;;;;;;;5.85;2.45;;;;;;;23.20;37.47;99620.53;4984023;28;20018;-49
2023/12/30 10:47:25;;;;;;;7.32;2.47;;;;;;;23.08;37.25;99610.66;4982440;28;20030;-48
2023/12/30 10:49:52;;;;;;;4.97;2.58;;;;;;;23.08;37.61;99603.13;5017055;28;20469;-48
2023/12/30 10:52:21;;;;;;;5.13;2.47;;;;;;;23.11;37.36;99604.19;4983176;28;20023;-48
2023/12/30 10:54:47;;;;;;;6.00;2.92;;;;;;;23.02;36.93;99600.31;4997859;28;20033;-48
2023/12/30 10:57:14;;;;;;;5.55;2.63;;;;;;;22.87;37.57;99601.59;4968933;28;20073;-51
2023/12/30 10:59:39;;;;;;;4.93;2.43;;;;;;;22.80;38.10;99594.50;5012882;28;20034;-47
2023/12/30 11:02:05;;;;;;;4.53;2.30;;;;;;;22.80;37.52;99593.75;4996391;28;20266;-48
2023/12/30 11:04:31;;;;;;;4.60;2.20;;;;;;;22.76;37.96;99588.44;4997959;28;20502;-49
2023/12/30 11:06:57;;;;;;;5.88;2.20;;;;;;;22.86;37.69;99589.84;4967428;28;20030;-47
2023/12/30 11:09:23;;;;;;;4.82;2.17;;;;;;;23.09;37.42;99584.63;4988034;28;20022;-48
2023/12/30 11:11:52;;;;;;;4.80;2.10;;;;;;;23.03;37.82;99582.56;4638347;28;10000040;-48
2023/12/30 11:14:21;;;;;;;5.55;2.90;;;;;;;23.00;37.42;99575.25;4980265;28;20069;-41
2023/12/30 11:16:46;;;;;;;9.93;5.15;;;;;;;22.88;38.01;99557.09;5011571;28;20023;-39
2023/12/30 11:19:25;;;;;;;12.48;9.57;;;;;;;22.67;38.35;99566.53;4979812;28;20474;-39
2023/12/30 11:21:51;;;;;;;15.63;11.90;;;;;;;22.95;38.68;99573.22;4977426;28;20035;-42
2023/12/30 11:24:18;;;;;;;11.90;9.60;;;;;;;22.57;37.87;99567.91;4975462;28;20048;-42